N511EM KTVL-KVGT
Flight info
| Callsign | N511EM |
|---|---|
| Flight time | 1h 28m |
| Altitude | 19000 |
| Route | DCT KENNO DCT BTY DCT |
| Aircraft | K100/L-SBDGRY/S |
Departure
| Time | 2026-04-29 23:32 |
|---|---|
| Airport | Lake Tahoe Airport (KTVL) |
Arrival
| Time | 2026-04-30 01:00 |
|---|---|
| Airport | North Las Vegas Airport (KVGT) |
| Time | Latitude | Longitude | Altitude | Speed | Heading |
|---|---|---|---|---|---|
| 2026-04-29 23:18 | 38.89428 | -119.99686 | 6275 ft | 0 kts | 285° |
| 2026-04-29 23:25 | 38.89408 | -119.99718 | 6266 ft | 9 kts | 199° |
| 2026-04-29 23:25 | 38.89337 | -119.99738 | 6266 ft | 11 kts | 189° |
| 2026-04-29 23:25 | 38.89251 | -119.99736 | 6266 ft | 14 kts | 144° |
| 2026-04-29 23:26 | 38.89156 | -119.99705 | 6263 ft | 17 kts | 193° |
| 2026-04-29 23:26 | 38.89035 | -119.99743 | 6265 ft | 18 kts | 193° |
| 2026-04-29 23:26 | 38.88907 | -119.99782 | 6265 ft | 19 kts | 191° |
| 2026-04-29 23:26 | 38.88764 | -119.99820 | 6261 ft | 22 kts | 193° |
| 2026-04-29 23:27 | 38.88617 | -119.99863 | 6261 ft | 22 kts | 192° |
| 2026-04-29 23:27 | 38.88470 | -119.99906 | 6261 ft | 22 kts | 193° |
| 2026-04-29 23:27 | 38.88337 | -119.99947 | 6263 ft | 17 kts | 195° |
| 2026-04-29 23:27 | 38.88281 | -119.99947 | 6262 ft | 0 kts | 141° |
| 2026-04-29 23:30 | 38.88276 | -119.99942 | 6262 ft | 4 kts | 134° |
| 2026-04-29 23:30 | 38.88271 | -119.99870 | 6262 ft | 10 kts | 54° |
| 2026-04-29 23:31 | 38.88286 | -119.99859 | 6263 ft | 0 kts | 14° |
| 2026-04-29 23:31 | 38.88432 | -119.99816 | 6261 ft | 52 kts | 14° |
| 2026-04-29 23:31 | 38.88936 | -119.99667 | 6338 ft | 83 kts | 12° |
| 2026-04-29 23:31 | 38.89519 | -119.99473 | 6508 ft | 92 kts | 9° |
| 2026-04-29 23:32 | 38.90210 | -119.99238 | 6664 ft | 118 kts | 15° |
| 2026-04-29 23:32 | 38.90964 | -119.98857 | 7189 ft | 111 kts | 24° |
| 2026-04-29 23:32 | 38.91682 | -119.98555 | 7675 ft | 106 kts | 16° |
| 2026-04-29 23:32 | 38.92400 | -119.98325 | 8057 ft | 106 kts | 14° |
| 2026-04-29 23:33 | 38.93116 | -119.98066 | 8422 ft | 108 kts | 13° |
| 2026-04-29 23:33 | 38.93853 | -119.97760 | 8677 ft | 120 kts | 16° |
| 2026-04-29 23:33 | 38.94651 | -119.97402 | 9053 ft | 119 kts | 17° |
| 2026-04-29 23:33 | 38.95427 | -119.97053 | 9395 ft | 120 kts | 15° |
| 2026-04-29 23:34 | 38.96229 | -119.96694 | 9716 ft | 123 kts | 16° |
| 2026-04-29 23:34 | 38.97015 | -119.96244 | 10063 ft | 127 kts | 41° |
| 2026-04-29 23:34 | 38.97274 | -119.95143 | 10405 ft | 138 kts | 96° |
| 2026-04-29 23:34 | 38.97194 | -119.94328 | 10608 ft | 139 kts | 96° |
| 2026-04-29 23:35 | 38.97092 | -119.93094 | 10935 ft | 140 kts | 94° |
| 2026-04-29 23:35 | 38.96996 | -119.91854 | 11276 ft | 139 kts | 94° |
| 2026-04-29 23:35 | 38.96903 | -119.90615 | 11605 ft | 139 kts | 92° |
| 2026-04-29 23:35 | 38.96791 | -119.89372 | 11922 ft | 139 kts | 94° |
| 2026-04-29 23:36 | 38.96677 | -119.88128 | 12183 ft | 141 kts | 93° |
| 2026-04-29 23:36 | 38.96500 | -119.86442 | 12603 ft | 142 kts | 95° |
| 2026-04-29 23:36 | 38.96432 | -119.85612 | 12819 ft | 141 kts | 90° |
| 2026-04-29 23:36 | 38.96135 | -119.84409 | 13122 ft | 144 kts | 124° |
| 2026-04-29 23:37 | 38.95547 | -119.83378 | 13446 ft | 143 kts | 126° |
| 2026-04-29 23:37 | 38.94951 | -119.82357 | 13741 ft | 144 kts | 134° |
| 2026-04-29 23:37 | 38.94281 | -119.81387 | 14009 ft | 146 kts | 134° |
| 2026-04-29 23:37 | 38.93627 | -119.80379 | 14274 ft | 148 kts | 132° |
| 2026-04-29 23:38 | 38.92973 | -119.79352 | 14528 ft | 149 kts | 132° |
| 2026-04-29 23:38 | 38.92325 | -119.78330 | 14770 ft | 150 kts | 131° |
| 2026-04-29 23:38 | 38.91665 | -119.77286 | 15027 ft | 152 kts | 131° |
| 2026-04-29 23:38 | 38.90995 | -119.76229 | 15258 ft | 153 kts | 131° |
| 2026-04-29 23:39 | 38.90319 | -119.75162 | 15490 ft | 154 kts | 130° |
| 2026-04-29 23:39 | 38.89640 | -119.74088 | 15731 ft | 156 kts | 130° |
| 2026-04-29 23:39 | 38.88954 | -119.73006 | 15952 ft | 157 kts | 130° |
| 2026-04-29 23:39 | 38.88259 | -119.71910 | 16183 ft | 159 kts | 130° |
| 2026-04-29 23:40 | 38.87562 | -119.70810 | 16428 ft | 159 kts | 130° |
| 2026-04-29 23:40 | 38.86862 | -119.69703 | 16690 ft | 160 kts | 129° |
| 2026-04-29 23:40 | 38.86153 | -119.68582 | 16901 ft | 165 kts | 129° |
| 2026-04-29 23:40 | 38.85386 | -119.67387 | 16903 ft | 180 kts | 129° |
| 2026-04-29 23:41 | 38.84575 | -119.66117 | 16905 ft | 188 kts | 129° |
| 2026-04-29 23:41 | 38.83739 | -119.64797 | 16909 ft | 193 kts | 129° |
| 2026-04-29 23:41 | 38.82891 | -119.63451 | 16883 ft | 195 kts | 127° |
| 2026-04-29 23:41 | 38.82054 | -119.62093 | 16900 ft | 194 kts | 130° |
| 2026-04-29 23:42 | 38.81179 | -119.60764 | 16906 ft | 196 kts | 129° |
| 2026-04-29 23:42 | 38.80313 | -119.59409 | 16895 ft | 197 kts | 129° |
| 2026-04-29 23:42 | 38.79451 | -119.58046 | 16897 ft | 196 kts | 129° |
| 2026-04-29 23:42 | 38.78581 | -119.56689 | 16892 ft | 198 kts | 129° |
| 2026-04-29 23:43 | 38.77719 | -119.55313 | 16883 ft | 198 kts | 129° |
| 2026-04-29 23:43 | 38.76854 | -119.53946 | 16879 ft | 196 kts | 129° |
| 2026-04-29 23:43 | 38.75984 | -119.52584 | 16883 ft | 198 kts | 129° |
| 2026-04-29 23:43 | 38.75122 | -119.51236 | 16881 ft | 199 kts | 129° |
| 2026-04-29 23:44 | 38.74246 | -119.49865 | 16882 ft | 199 kts | 129° |
| 2026-04-29 23:44 | 38.73369 | -119.48491 | 16880 ft | 199 kts | 129° |
| 2026-04-29 23:44 | 38.72490 | -119.47114 | 16869 ft | 199 kts | 129° |
| 2026-04-29 23:44 | 38.71613 | -119.45741 | 16868 ft | 199 kts | 129° |
| 2026-04-29 23:45 | 38.70732 | -119.44362 | 16867 ft | 200 kts | 129° |
| 2026-04-29 23:45 | 38.69852 | -119.42985 | 16868 ft | 200 kts | 129° |
| 2026-04-29 23:45 | 38.68971 | -119.41608 | 16869 ft | 200 kts | 129° |
| 2026-04-29 23:45 | 38.68090 | -119.40231 | 16868 ft | 200 kts | 129° |
| 2026-04-29 23:46 | 38.67211 | -119.38857 | 16866 ft | 200 kts | 129° |
| 2026-04-29 23:46 | 38.66328 | -119.37476 | 16868 ft | 201 kts | 129° |
| 2026-04-29 23:46 | 38.65433 | -119.36082 | 16868 ft | 204 kts | 130° |
| 2026-04-29 23:46 | 38.64515 | -119.34676 | 16876 ft | 208 kts | 129° |
| 2026-04-29 23:47 | 38.63611 | -119.33227 | 16875 ft | 209 kts | 128° |
| 2026-04-29 23:47 | 38.62685 | -119.31773 | 16870 ft | 211 kts | 129° |
| 2026-04-29 23:47 | 38.61765 | -119.30347 | 16870 ft | 209 kts | 130° |
| 2026-04-29 23:47 | 38.60838 | -119.28916 | 16867 ft | 209 kts | 129° |
| 2026-04-29 23:48 | 38.59919 | -119.27474 | 16870 ft | 210 kts | 129° |
| 2026-04-29 23:48 | 38.58990 | -119.26032 | 16865 ft | 209 kts | 129° |
| 2026-04-29 23:48 | 38.58065 | -119.24596 | 16876 ft | 210 kts | 129° |
| 2026-04-29 23:48 | 38.57138 | -119.23152 | 16875 ft | 210 kts | 130° |
| 2026-04-29 23:49 | 38.56207 | -119.21710 | 16871 ft | 210 kts | 130° |
| 2026-04-29 23:49 | 38.55280 | -119.20268 | 16865 ft | 210 kts | 130° |
| 2026-04-29 23:49 | 38.54350 | -119.18824 | 16866 ft | 211 kts | 130° |
| 2026-04-29 23:49 | 38.53418 | -119.17377 | 16866 ft | 211 kts | 130° |
| 2026-04-29 23:50 | 38.52485 | -119.15928 | 16869 ft | 211 kts | 130° |
| 2026-04-29 23:50 | 38.51551 | -119.14479 | 16871 ft | 211 kts | 130° |
| 2026-04-29 23:50 | 38.49714 | -119.11625 | 16868 ft | 205 kts | 130° |
| 2026-04-29 23:51 | 38.48798 | -119.10211 | 16868 ft | 208 kts | 130° |
| 2026-04-29 23:51 | 38.47872 | -119.08786 | 16867 ft | 209 kts | 130° |
| 2026-04-29 23:51 | 38.46946 | -119.07354 | 16869 ft | 210 kts | 130° |
| 2026-04-29 23:51 | 38.46015 | -119.05914 | 16871 ft | 210 kts | 130° |
| 2026-04-29 23:52 | 38.45095 | -119.04491 | 16872 ft | 211 kts | 130° |
| 2026-04-29 23:52 | 38.44162 | -119.03049 | 16871 ft | 211 kts | 130° |
| 2026-04-29 23:52 | 38.43230 | -119.01607 | 16873 ft | 210 kts | 130° |
| 2026-04-29 23:52 | 38.42299 | -119.00167 | 16870 ft | 211 kts | 130° |
| 2026-04-29 23:53 | 38.41365 | -118.98726 | 16873 ft | 211 kts | 129° |
| 2026-04-29 23:53 | 38.40430 | -118.97286 | 16871 ft | 210 kts | 129° |
| 2026-04-29 23:53 | 38.39501 | -118.95851 | 16874 ft | 210 kts | 129° |
| 2026-04-29 23:53 | 38.38567 | -118.94410 | 16877 ft | 211 kts | 130° |
| 2026-04-29 23:54 | 38.37629 | -118.92965 | 16876 ft | 212 kts | 130° |
| 2026-04-29 23:54 | 38.36690 | -118.91521 | 16875 ft | 212 kts | 130° |
| 2026-04-29 23:54 | 38.35751 | -118.90076 | 16872 ft | 212 kts | 129° |
| 2026-04-29 23:54 | 38.34810 | -118.88627 | 16870 ft | 212 kts | 129° |
| 2026-04-29 23:55 | 38.33869 | -118.87181 | 16870 ft | 212 kts | 129° |
| 2026-04-29 23:55 | 38.32930 | -118.85736 | 16872 ft | 212 kts | 130° |
| 2026-04-29 23:55 | 38.31986 | -118.84288 | 16871 ft | 212 kts | 130° |
| 2026-04-29 23:55 | 38.31044 | -118.82843 | 16869 ft | 212 kts | 130° |
| 2026-04-29 23:56 | 38.30103 | -118.81396 | 16869 ft | 212 kts | 129° |
| 2026-04-29 23:56 | 38.29162 | -118.79951 | 16866 ft | 212 kts | 130° |
| 2026-04-29 23:56 | 38.28219 | -118.78508 | 16864 ft | 212 kts | 129° |
| 2026-04-29 23:56 | 38.27279 | -118.77066 | 16861 ft | 212 kts | 129° |
| 2026-04-29 23:57 | 38.26339 | -118.75625 | 16858 ft | 211 kts | 129° |
| 2026-04-29 23:57 | 38.25402 | -118.74187 | 16859 ft | 211 kts | 129° |
| 2026-04-29 23:57 | 38.24463 | -118.72749 | 16856 ft | 211 kts | 129° |
| 2026-04-29 23:57 | 38.23524 | -118.71313 | 16854 ft | 211 kts | 129° |
| 2026-04-29 23:58 | 38.22582 | -118.69873 | 16855 ft | 212 kts | 129° |
| 2026-04-29 23:58 | 38.21651 | -118.68449 | 16849 ft | 212 kts | 129° |
| 2026-04-29 23:58 | 38.20711 | -118.67011 | 16848 ft | 211 kts | 129° |
| 2026-04-29 23:58 | 38.19767 | -118.65569 | 16843 ft | 213 kts | 129° |
| 2026-04-29 23:59 | 38.18820 | -118.64130 | 16839 ft | 212 kts | 129° |
| 2026-04-29 23:59 | 38.17876 | -118.62682 | 16839 ft | 213 kts | 129° |
| 2026-04-29 23:59 | 38.16930 | -118.61235 | 16839 ft | 213 kts | 129° |
| 2026-04-29 23:59 | 38.15982 | -118.59791 | 16834 ft | 213 kts | 129° |
| 2026-04-30 00:00 | 38.15039 | -118.58350 | 16836 ft | 212 kts | 129° |
| 2026-04-30 00:00 | 38.14091 | -118.56909 | 16835 ft | 212 kts | 129° |
| 2026-04-30 00:00 | 38.13144 | -118.55471 | 16834 ft | 212 kts | 129° |
| 2026-04-30 00:00 | 38.12199 | -118.54031 | 16823 ft | 212 kts | 130° |
| 2026-04-30 00:01 | 38.11252 | -118.52591 | 16824 ft | 212 kts | 129° |
| 2026-04-30 00:01 | 38.10308 | -118.51156 | 16823 ft | 212 kts | 130° |
| 2026-04-30 00:01 | 38.09365 | -118.49722 | 16823 ft | 211 kts | 129° |
| 2026-04-30 00:01 | 38.08425 | -118.48294 | 16824 ft | 211 kts | 130° |
| 2026-04-30 00:02 | 38.07485 | -118.46867 | 16825 ft | 211 kts | 129° |
| 2026-04-30 00:02 | 38.06543 | -118.45435 | 16823 ft | 211 kts | 129° |
| 2026-04-30 00:02 | 38.05599 | -118.44005 | 16823 ft | 211 kts | 129° |
| 2026-04-30 00:02 | 38.04669 | -118.42591 | 16827 ft | 211 kts | 129° |
| 2026-04-30 00:03 | 38.03726 | -118.41163 | 16827 ft | 211 kts | 130° |
| 2026-04-30 00:03 | 38.02781 | -118.39733 | 16825 ft | 211 kts | 129° |
| 2026-04-30 00:03 | 38.01839 | -118.38306 | 16827 ft | 211 kts | 129° |
| 2026-04-30 00:03 | 38.00897 | -118.36878 | 16832 ft | 211 kts | 130° |
| 2026-04-30 00:04 | 37.99953 | -118.35449 | 16835 ft | 212 kts | 129° |
| 2026-04-30 00:04 | 37.99008 | -118.34017 | 16838 ft | 212 kts | 129° |
| 2026-04-30 00:04 | 37.98056 | -118.32580 | 16836 ft | 213 kts | 129° |
| 2026-04-30 00:04 | 37.97105 | -118.31145 | 16833 ft | 213 kts | 130° |
| 2026-04-30 00:05 | 37.96152 | -118.29708 | 16838 ft | 212 kts | 130° |
| 2026-04-30 00:05 | 37.95204 | -118.28276 | 16829 ft | 211 kts | 131° |
| 2026-04-30 00:05 | 37.94268 | -118.26862 | 16841 ft | 209 kts | 130° |
| 2026-04-30 00:05 | 37.93331 | -118.25446 | 16839 ft | 210 kts | 130° |
| 2026-04-30 00:06 | 37.92386 | -118.24025 | 16839 ft | 211 kts | 130° |
| 2026-04-30 00:06 | 37.91456 | -118.22624 | 16840 ft | 211 kts | 130° |
| 2026-04-30 00:06 | 37.90513 | -118.21206 | 16882 ft | 208 kts | 131° |
| 2026-04-30 00:06 | 37.89562 | -118.19796 | 16837 ft | 211 kts | 129° |
| 2026-04-30 00:07 | 37.88631 | -118.18356 | 16828 ft | 211 kts | 129° |
| 2026-04-30 00:07 | 37.87689 | -118.16931 | 16829 ft | 211 kts | 130° |
| 2026-04-30 00:07 | 37.86740 | -118.15513 | 16829 ft | 211 kts | 130° |
| 2026-04-30 00:07 | 37.85794 | -118.14095 | 16830 ft | 211 kts | 130° |
| 2026-04-30 00:08 | 37.84848 | -118.12674 | 16831 ft | 211 kts | 130° |
| 2026-04-30 00:08 | 37.83901 | -118.11252 | 16831 ft | 211 kts | 130° |
| 2026-04-30 00:08 | 37.82955 | -118.09831 | 16831 ft | 211 kts | 130° |
| 2026-04-30 00:08 | 37.82021 | -118.08429 | 16832 ft | 211 kts | 130° |
| 2026-04-30 00:09 | 37.81075 | -118.07011 | 16838 ft | 211 kts | 130° |
| 2026-04-30 00:09 | 37.80129 | -118.05591 | 16843 ft | 212 kts | 130° |
| 2026-04-30 00:09 | 37.79178 | -118.04165 | 16844 ft | 213 kts | 130° |
| 2026-04-30 00:09 | 37.78222 | -118.02734 | 16845 ft | 213 kts | 130° |
| 2026-04-30 00:10 | 37.77264 | -118.01300 | 16841 ft | 213 kts | 130° |
| 2026-04-30 00:10 | 37.76306 | -117.99867 | 16841 ft | 214 kts | 130° |
| 2026-04-30 00:10 | 37.75341 | -117.98425 | 16842 ft | 215 kts | 130° |
| 2026-04-30 00:10 | 37.74374 | -117.96982 | 16843 ft | 216 kts | 130° |
| 2026-04-30 00:11 | 37.73410 | -117.95535 | 16840 ft | 215 kts | 130° |
| 2026-04-30 00:11 | 37.72442 | -117.94092 | 16841 ft | 215 kts | 131° |
| 2026-04-30 00:11 | 37.71472 | -117.92660 | 16842 ft | 215 kts | 130° |
| 2026-04-30 00:11 | 37.70511 | -117.91203 | 16841 ft | 216 kts | 130° |
| 2026-04-30 00:12 | 37.69545 | -117.89755 | 16834 ft | 215 kts | 130° |
| 2026-04-30 00:12 | 37.68581 | -117.88319 | 16826 ft | 214 kts | 130° |
| 2026-04-30 00:12 | 37.67630 | -117.86914 | 16830 ft | 213 kts | 130° |
| 2026-04-30 00:12 | 37.66678 | -117.85483 | 16831 ft | 213 kts | 130° |
| 2026-04-30 00:13 | 37.65717 | -117.84053 | 16828 ft | 214 kts | 131° |
| 2026-04-30 00:13 | 37.64755 | -117.82631 | 16841 ft | 211 kts | 132° |
| 2026-04-30 00:13 | 37.63793 | -117.81219 | 16838 ft | 212 kts | 130° |
| 2026-04-30 00:13 | 37.62852 | -117.79784 | 16837 ft | 212 kts | 130° |
| 2026-04-30 00:14 | 37.61900 | -117.78359 | 16837 ft | 213 kts | 131° |
| 2026-04-30 00:14 | 37.60938 | -117.76938 | 16835 ft | 213 kts | 131° |
| 2026-04-30 00:14 | 37.59973 | -117.75510 | 16837 ft | 213 kts | 130° |
| 2026-04-30 00:14 | 37.59011 | -117.74083 | 16837 ft | 214 kts | 130° |
| 2026-04-30 00:15 | 37.58048 | -117.72653 | 16837 ft | 214 kts | 130° |
| 2026-04-30 00:15 | 37.57084 | -117.71225 | 16846 ft | 214 kts | 131° |
| 2026-04-30 00:15 | 37.56120 | -117.69796 | 16841 ft | 214 kts | 130° |
| 2026-04-30 00:15 | 37.55156 | -117.68366 | 16846 ft | 214 kts | 130° |
| 2026-04-30 00:16 | 37.54187 | -117.66931 | 16844 ft | 215 kts | 130° |
| 2026-04-30 00:16 | 37.53220 | -117.65496 | 16839 ft | 215 kts | 130° |
| 2026-04-30 00:16 | 37.52251 | -117.64061 | 16842 ft | 215 kts | 131° |
| 2026-04-30 00:16 | 37.51279 | -117.62629 | 16833 ft | 215 kts | 130° |
| 2026-04-30 00:17 | 37.50311 | -117.61198 | 16830 ft | 215 kts | 130° |
| 2026-04-30 00:17 | 37.49346 | -117.59769 | 16831 ft | 214 kts | 130° |
| 2026-04-30 00:17 | 37.48382 | -117.58345 | 16841 ft | 213 kts | 130° |
| 2026-04-30 00:17 | 37.47419 | -117.56923 | 16842 ft | 214 kts | 130° |
| 2026-04-30 00:18 | 37.46467 | -117.55518 | 16841 ft | 214 kts | 130° |
| 2026-04-30 00:18 | 37.45505 | -117.54093 | 16841 ft | 212 kts | 130° |
| 2026-04-30 00:18 | 37.44551 | -117.52684 | 16842 ft | 212 kts | 130° |
| 2026-04-30 00:18 | 37.43591 | -117.51272 | 16846 ft | 213 kts | 130° |
| 2026-04-30 00:19 | 37.42627 | -117.49852 | 16845 ft | 214 kts | 130° |
| 2026-04-30 00:19 | 37.41676 | -117.48419 | 16841 ft | 213 kts | 130° |
| 2026-04-30 00:19 | 37.40701 | -117.47016 | 16861 ft | 213 kts | 131° |
| 2026-04-30 00:19 | 37.39731 | -117.45607 | 16863 ft | 213 kts | 131° |
| 2026-04-30 00:20 | 37.38771 | -117.44186 | 16856 ft | 214 kts | 130° |
| 2026-04-30 00:20 | 37.37807 | -117.42761 | 16856 ft | 214 kts | 131° |
| 2026-04-30 00:20 | 37.36842 | -117.41341 | 16857 ft | 214 kts | 131° |
| 2026-04-30 00:20 | 37.35874 | -117.39919 | 16858 ft | 214 kts | 131° |
| 2026-04-30 00:21 | 37.34905 | -117.38496 | 16856 ft | 214 kts | 131° |
| 2026-04-30 00:21 | 37.33933 | -117.37069 | 16856 ft | 215 kts | 131° |
| 2026-04-30 00:21 | 37.32961 | -117.35642 | 16853 ft | 215 kts | 131° |
| 2026-04-30 00:21 | 37.31990 | -117.34217 | 16862 ft | 215 kts | 131° |
| 2026-04-30 00:22 | 37.31028 | -117.32806 | 16858 ft | 215 kts | 131° |
| 2026-04-30 00:22 | 37.30055 | -117.31377 | 16857 ft | 214 kts | 131° |
| 2026-04-30 00:22 | 37.28991 | -117.30068 | 16860 ft | 214 kts | 140° |
| 2026-04-30 00:22 | 37.27879 | -117.28823 | 16861 ft | 215 kts | 139° |
| 2026-04-30 00:23 | 37.27143 | -117.27985 | 16868 ft | 217 kts | 139° |
| 2026-04-30 00:23 | 37.26026 | -117.26707 | 16839 ft | 217 kts | 139° |
| 2026-04-30 00:23 | 37.24916 | -117.25443 | 16839 ft | 214 kts | 139° |
| 2026-04-30 00:23 | 37.23818 | -117.24187 | 16841 ft | 213 kts | 139° |
| 2026-04-30 00:24 | 37.22721 | -117.22933 | 16841 ft | 213 kts | 139° |
| 2026-04-30 00:24 | 37.21619 | -117.21680 | 16844 ft | 213 kts | 139° |
| 2026-04-30 00:24 | 37.20520 | -117.20431 | 16830 ft | 213 kts | 139° |
| 2026-04-30 00:24 | 37.19417 | -117.19178 | 16834 ft | 213 kts | 139° |
| 2026-04-30 00:25 | 37.18317 | -117.17928 | 16831 ft | 213 kts | 139° |
| 2026-04-30 00:25 | 37.17216 | -117.16676 | 16841 ft | 213 kts | 139° |
| 2026-04-30 00:25 | 37.16116 | -117.15428 | 16843 ft | 213 kts | 139° |
| 2026-04-30 00:25 | 37.15028 | -117.14193 | 16844 ft | 214 kts | 139° |
| 2026-04-30 00:26 | 37.13922 | -117.12939 | 16842 ft | 215 kts | 139° |
| 2026-04-30 00:26 | 37.12814 | -117.11684 | 16832 ft | 215 kts | 139° |
| 2026-04-30 00:26 | 37.11706 | -117.10428 | 16832 ft | 215 kts | 139° |
| 2026-04-30 00:26 | 37.10599 | -117.09172 | 16831 ft | 214 kts | 139° |
| 2026-04-30 00:27 | 37.09495 | -117.07922 | 16832 ft | 214 kts | 139° |
| 2026-04-30 00:27 | 37.08392 | -117.06672 | 16833 ft | 214 kts | 139° |
| 2026-04-30 00:27 | 37.07290 | -117.05425 | 16833 ft | 214 kts | 139° |
| 2026-04-30 00:27 | 37.06188 | -117.04178 | 16822 ft | 214 kts | 139° |
| 2026-04-30 00:28 | 37.05084 | -117.02929 | 16819 ft | 214 kts | 139° |
| 2026-04-30 00:28 | 37.03982 | -117.01683 | 16818 ft | 213 kts | 139° |
| 2026-04-30 00:28 | 37.02880 | -117.00438 | 16814 ft | 214 kts | 139° |
| 2026-04-30 00:28 | 37.01778 | -116.99194 | 16814 ft | 213 kts | 139° |
| 2026-04-30 00:29 | 37.00677 | -116.97950 | 16811 ft | 213 kts | 139° |
| 2026-04-30 00:29 | 36.99588 | -116.96721 | 16810 ft | 213 kts | 139° |
| 2026-04-30 00:29 | 36.98485 | -116.95476 | 16799 ft | 213 kts | 139° |
| 2026-04-30 00:29 | 36.97380 | -116.94231 | 16801 ft | 214 kts | 139° |
| 2026-04-30 00:30 | 36.96274 | -116.92983 | 16800 ft | 214 kts | 139° |
| 2026-04-30 00:30 | 36.95169 | -116.91740 | 16803 ft | 213 kts | 139° |
| 2026-04-30 00:30 | 36.94066 | -116.90496 | 16805 ft | 214 kts | 139° |
| 2026-04-30 00:30 | 36.92959 | -116.89249 | 16803 ft | 215 kts | 139° |
| 2026-04-30 00:31 | 36.91848 | -116.87999 | 16793 ft | 215 kts | 139° |
| 2026-04-30 00:31 | 36.90738 | -116.86753 | 16805 ft | 214 kts | 139° |
| 2026-04-30 00:31 | 36.89628 | -116.85504 | 16803 ft | 215 kts | 139° |
| 2026-04-30 00:31 | 36.88530 | -116.84271 | 16798 ft | 215 kts | 139° |
| 2026-04-30 00:32 | 36.87422 | -116.83026 | 16798 ft | 214 kts | 139° |
| 2026-04-30 00:32 | 36.86315 | -116.81783 | 16798 ft | 214 kts | 139° |
| 2026-04-30 00:32 | 36.85208 | -116.80540 | 16781 ft | 214 kts | 139° |
| 2026-04-30 00:32 | 36.84098 | -116.79293 | 16781 ft | 215 kts | 139° |
| 2026-04-30 00:33 | 36.82986 | -116.78047 | 16779 ft | 214 kts | 139° |
| 2026-04-30 00:33 | 36.81877 | -116.76803 | 16779 ft | 214 kts | 139° |
| 2026-04-30 00:33 | 36.80768 | -116.75560 | 16779 ft | 214 kts | 139° |
| 2026-04-30 00:33 | 36.79827 | -116.74130 | 16779 ft | 214 kts | 116° |
| 2026-04-30 00:34 | 36.79208 | -116.72451 | 16758 ft | 213 kts | 112° |
| 2026-04-30 00:34 | 36.78587 | -116.70774 | 16769 ft | 213 kts | 113° |
| 2026-04-30 00:34 | 36.77961 | -116.69099 | 16769 ft | 213 kts | 113° |
| 2026-04-30 00:34 | 36.77337 | -116.67421 | 16769 ft | 213 kts | 113° |
| 2026-04-30 00:35 | 36.76713 | -116.65740 | 16771 ft | 213 kts | 112° |
| 2026-04-30 00:35 | 36.76089 | -116.64061 | 16771 ft | 213 kts | 113° |
| 2026-04-30 00:35 | 36.75464 | -116.62380 | 16777 ft | 214 kts | 113° |
| 2026-04-30 00:35 | 36.74840 | -116.60702 | 16773 ft | 213 kts | 113° |
| 2026-04-30 00:36 | 36.74216 | -116.59025 | 16769 ft | 213 kts | 113° |
| 2026-04-30 00:36 | 36.73590 | -116.57346 | 16762 ft | 213 kts | 113° |
| 2026-04-30 00:36 | 36.72966 | -116.55671 | 16769 ft | 213 kts | 113° |
| 2026-04-30 00:36 | 36.72340 | -116.53993 | 16772 ft | 213 kts | 113° |
| 2026-04-30 00:37 | 36.71713 | -116.52316 | 16774 ft | 214 kts | 113° |
| 2026-04-30 00:37 | 36.71095 | -116.50658 | 16765 ft | 213 kts | 114° |
| 2026-04-30 00:37 | 36.70469 | -116.48983 | 16753 ft | 213 kts | 114° |
| 2026-04-30 00:37 | 36.69840 | -116.47300 | 16759 ft | 214 kts | 114° |
| 2026-04-30 00:38 | 36.69213 | -116.45622 | 16763 ft | 214 kts | 114° |
| 2026-04-30 00:38 | 36.68584 | -116.43939 | 16763 ft | 214 kts | 114° |
| 2026-04-30 00:38 | 36.67956 | -116.42261 | 16758 ft | 214 kts | 114° |
| 2026-04-30 00:38 | 36.67327 | -116.40579 | 16758 ft | 214 kts | 114° |
| 2026-04-30 00:39 | 36.66698 | -116.38902 | 16756 ft | 214 kts | 114° |
| 2026-04-30 00:39 | 36.66070 | -116.37225 | 16756 ft | 214 kts | 114° |
| 2026-04-30 00:39 | 36.65440 | -116.35547 | 16757 ft | 214 kts | 114° |
| 2026-04-30 00:39 | 36.64810 | -116.33869 | 16759 ft | 214 kts | 114° |
| 2026-04-30 00:40 | 36.64178 | -116.32186 | 16758 ft | 214 kts | 114° |
| 2026-04-30 00:40 | 36.63549 | -116.30509 | 16759 ft | 214 kts | 114° |
| 2026-04-30 00:40 | 36.62925 | -116.28849 | 16741 ft | 214 kts | 114° |
| 2026-04-30 00:40 | 36.62292 | -116.27170 | 16750 ft | 214 kts | 114° |
| 2026-04-30 00:41 | 36.61662 | -116.25497 | 16762 ft | 214 kts | 114° |
| 2026-04-30 00:41 | 36.61030 | -116.23817 | 16753 ft | 214 kts | 114° |
| 2026-04-30 00:41 | 36.60479 | -116.22103 | 16760 ft | 213 kts | 107° |
| 2026-04-30 00:41 | 36.60009 | -116.20350 | 16713 ft | 216 kts | 107° |
| 2026-04-30 00:42 | 36.59497 | -116.18568 | 16483 ft | 219 kts | 109° |
| 2026-04-30 00:42 | 36.58966 | -116.16808 | 16250 ft | 215 kts | 109° |
| 2026-04-30 00:42 | 36.58448 | -116.15069 | 15944 ft | 214 kts | 108° |
| 2026-04-30 00:42 | 36.57936 | -116.13328 | 15649 ft | 214 kts | 109° |
| 2026-04-30 00:43 | 36.57426 | -116.11595 | 15353 ft | 213 kts | 109° |
| 2026-04-30 00:43 | 36.56910 | -116.09870 | 15066 ft | 212 kts | 109° |
| 2026-04-30 00:43 | 36.56399 | -116.08153 | 14783 ft | 211 kts | 109° |
| 2026-04-30 00:43 | 36.55891 | -116.06441 | 14490 ft | 211 kts | 109° |
| 2026-04-30 00:44 | 36.55384 | -116.04729 | 14212 ft | 211 kts | 109° |
| 2026-04-30 00:44 | 36.54878 | -116.03025 | 13926 ft | 209 kts | 109° |
| 2026-04-30 00:44 | 36.54377 | -116.01336 | 13637 ft | 208 kts | 109° |
| 2026-04-30 00:44 | 36.53876 | -115.99652 | 13325 ft | 207 kts | 109° |
| 2026-04-30 00:45 | 36.53381 | -115.97987 | 13010 ft | 204 kts | 109° |
| 2026-04-30 00:45 | 36.52889 | -115.96339 | 12718 ft | 203 kts | 109° |
| 2026-04-30 00:45 | 36.52399 | -115.94693 | 12412 ft | 203 kts | 111° |
| 2026-04-30 00:45 | 36.51910 | -115.93055 | 12108 ft | 202 kts | 111° |
| 2026-04-30 00:46 | 36.51422 | -115.91411 | 11804 ft | 203 kts | 111° |
| 2026-04-30 00:46 | 36.50929 | -115.89763 | 11504 ft | 203 kts | 111° |
| 2026-04-30 00:46 | 36.50438 | -115.88126 | 11209 ft | 201 kts | 110° |
| 2026-04-30 00:46 | 36.49952 | -115.86501 | 10916 ft | 201 kts | 110° |
| 2026-04-30 00:47 | 36.49467 | -115.84879 | 10626 ft | 200 kts | 110° |
| 2026-04-30 00:47 | 36.48984 | -115.83268 | 10338 ft | 198 kts | 110° |
| 2026-04-30 00:47 | 36.48504 | -115.81666 | 10055 ft | 197 kts | 110° |
| 2026-04-30 00:47 | 36.48031 | -115.80082 | 9783 ft | 198 kts | 110° |
| 2026-04-30 00:48 | 36.47550 | -115.78476 | 9477 ft | 197 kts | 110° |
| 2026-04-30 00:48 | 36.47069 | -115.76876 | 9170 ft | 198 kts | 109° |
| 2026-04-30 00:48 | 36.46587 | -115.75262 | 8855 ft | 200 kts | 109° |
| 2026-04-30 00:48 | 36.46112 | -115.73676 | 8787 ft | 190 kts | 110° |
| 2026-04-30 00:49 | 36.45655 | -115.72160 | 8786 ft | 185 kts | 110° |
| 2026-04-30 00:49 | 36.45205 | -115.70670 | 8786 ft | 184 kts | 109° |
| 2026-04-30 00:49 | 36.44762 | -115.69197 | 8846 ft | 178 kts | 110° |
| 2026-04-30 00:49 | 36.44338 | -115.67778 | 8972 ft | 174 kts | 109° |
| 2026-04-30 00:50 | 36.43906 | -115.66346 | 8999 ft | 180 kts | 110° |
| 2026-04-30 00:50 | 36.43455 | -115.64861 | 9000 ft | 186 kts | 110° |
| 2026-04-30 00:50 | 36.43000 | -115.63351 | 9007 ft | 188 kts | 109° |
| 2026-04-30 00:50 | 36.42542 | -115.61830 | 9011 ft | 189 kts | 110° |
| 2026-04-30 00:51 | 36.42079 | -115.60298 | 9007 ft | 190 kts | 109° |
| 2026-04-30 00:51 | 36.41616 | -115.58762 | 9006 ft | 189 kts | 110° |
| 2026-04-30 00:51 | 36.41156 | -115.57236 | 9005 ft | 189 kts | 109° |
| 2026-04-30 00:51 | 36.40694 | -115.55707 | 9006 ft | 188 kts | 110° |
| 2026-04-30 00:52 | 36.40233 | -115.54191 | 9007 ft | 187 kts | 110° |
| 2026-04-30 00:52 | 36.39777 | -115.52674 | 9008 ft | 188 kts | 109° |
| 2026-04-30 00:52 | 36.39321 | -115.51169 | 8984 ft | 189 kts | 109° |
| 2026-04-30 00:52 | 36.38857 | -115.49645 | 8984 ft | 189 kts | 110° |
| 2026-04-30 00:53 | 36.38396 | -115.48117 | 8945 ft | 191 kts | 109° |
| 2026-04-30 00:53 | 36.37921 | -115.46551 | 8815 ft | 197 kts | 109° |
| 2026-04-30 00:53 | 36.37430 | -115.44944 | 8575 ft | 203 kts | 109° |
| 2026-04-30 00:53 | 36.36932 | -115.43297 | 8272 ft | 200 kts | 109° |
| 2026-04-30 00:54 | 36.36453 | -115.41709 | 7967 ft | 193 kts | 109° |
| 2026-04-30 00:54 | 36.35982 | -115.40167 | 7670 ft | 190 kts | 109° |
| 2026-04-30 00:54 | 36.35519 | -115.38643 | 7342 ft | 188 kts | 109° |
| 2026-04-30 00:54 | 36.35000 | -115.37157 | 7055 ft | 189 kts | 120° |
| 2026-04-30 00:55 | 36.34125 | -115.35972 | 6969 ft | 182 kts | 135° |
| 2026-04-30 00:55 | 36.33240 | -115.34878 | 6822 ft | 181 kts | 133° |
| 2026-04-30 00:55 | 36.31440 | -115.32592 | 6194 ft | 183 kts | 135° |
| 2026-04-30 00:56 | 36.30592 | -115.31490 | 5842 ft | 171 kts | 134° |
| 2026-04-30 00:56 | 36.29768 | -115.30455 | 5428 ft | 168 kts | 135° |
| 2026-04-30 00:56 | 36.28950 | -115.29415 | 4966 ft | 168 kts | 134° |
| 2026-04-30 00:56 | 36.28143 | -115.28386 | 4507 ft | 168 kts | 134° |
| 2026-04-30 00:57 | 36.27335 | -115.27366 | 4061 ft | 161 kts | 134° |
| 2026-04-30 00:57 | 36.26599 | -115.26438 | 3818 ft | 139 kts | 134° |
| 2026-04-30 00:57 | 36.25964 | -115.25624 | 3633 ft | 121 kts | 134° |
| 2026-04-30 00:57 | 36.25412 | -115.24930 | 3475 ft | 110 kts | 134° |
| 2026-04-30 00:58 | 36.24873 | -115.24246 | 3322 ft | 112 kts | 133° |
| 2026-04-30 00:58 | 36.24328 | -115.23554 | 3167 ft | 113 kts | 134° |
| 2026-04-30 00:58 | 36.23780 | -115.22860 | 3005 ft | 113 kts | 134° |
| 2026-04-30 00:58 | 36.23228 | -115.22162 | 2843 ft | 114 kts | 133° |
| 2026-04-30 00:59 | 36.22678 | -115.21463 | 2704 ft | 109 kts | 134° |
| 2026-04-30 00:59 | 36.22140 | -115.20785 | 2573 ft | 112 kts | 134° |
| 2026-04-30 00:59 | 36.21584 | -115.20092 | 2359 ft | 114 kts | 131° |
| 2026-04-30 00:59 | 36.21067 | -115.19424 | 2192 ft | 94 kts | 133° |
| 2026-04-30 01:00 | 36.20692 | -115.18938 | 2164 ft | 62 kts | 134° |
| 2026-04-30 01:00 | 36.20506 | -115.18733 | 2152 ft | 14 kts | 182° |
| 2026-04-30 01:00 | 36.20451 | -115.18812 | 2153 ft | 10 kts | 295° |
| 2026-04-30 01:00 | 36.20504 | -115.18883 | 2155 ft | 12 kts | 311° |
| 2026-04-30 01:01 | 36.20560 | -115.18952 | 2163 ft | 11 kts | 315° |
| 2026-04-30 01:01 | 36.20539 | -115.19027 | 2160 ft | 11 kts | 225° |
| 2026-04-30 01:01 | 36.20480 | -115.19100 | 2162 ft | 13 kts | 225° |
| 2026-04-30 01:01 | 36.20495 | -115.19157 | 2163 ft | 8 kts | 313° |
| 2026-04-30 01:02 | 36.20540 | -115.19213 | 2170 ft | 10 kts | 320° |
| 2026-04-30 01:02 | 36.20550 | -115.19265 | 2172 ft | 5 kts | 224° |
| 2026-04-30 01:02 | 36.20549 | -115.19267 | 2172 ft | 0 kts | 223° |